M I D A S
Marine Information and Data Acquisition System
Tripno 778 of the Zeeleeuw from 2004-04-20 06:56:50 to 2004-04-20 12:07:06
Back to CruiseResearch ActivitiesStationsMapUnderway DataData graphs

EquipmentUnitsComment
TimeDGPSUTC
LatitudeDGPSDM.mWGS84
LongitudeDGPSDM.mWGS84
HeadingGyrodeg 
SOGDGPSknotsSpeed over ground
COGDGPSdegCourse over ground
DepthEcho soundermeters200 kHz
Missing or incorrect values are displayed as -999
Navigation data collected by the RV Zeeleeuw from 2004-04-20 06:56:50 to 2004-04-20 12:07:06
                                                                                    Next 1000 lines
Time Latitude Longitude Heading SOG COG Depth
2004-04-20 06:56:59 51°13.669 2°55.765 80.3 1 288 8.8
2004-04-20 06:57:04 51°13.669 2°55.764 76.9 0.8 293 9
2004-04-20 06:57:09 51°13.67 2°55.764 73.5 0.6 350 9.1
2004-04-20 06:57:14 51°13.671 2°55.764 69.1 0.7 18 9.1
2004-04-20 06:57:18 51°13.672 2°55.765 64.1 1.1 29 9.3
2004-04-20 06:57:23 51°13.674 2°55.767 58.7 1.3 33 9.6
2004-04-20 06:57:29 51°13.676 2°55.769 52.9 1.7 31 9.8
2004-04-20 06:57:33 51°13.678 2°55.771 46.8 1.8 31 10.7
2004-04-20 06:57:38 51°13.68 2°55.772 41.3 1.7 24 11.3
2004-04-20 06:57:43 51°13.682 2°55.773 37.8 1.4 22 11.6
2004-04-20 06:57:49 51°13.682 2°55.773 34.8 0.5 358 11.7
2004-04-20 06:57:53 51°13.683 2°55.773 31.5 0.2 313 11.7
2004-04-20 06:57:59 51°13.682 2°55.772 29.1 0.4 236 11.7
2004-04-20 06:58:04 51°13.681 2°55.771 27.3 0.8 216 11.7
2004-04-20 06:58:09 51°13.68 2°55.77 25.9 0.9 216 11.4
2004-04-20 06:58:14 51°13.679 2°55.769 24.6 0.6 226 11.2
2004-04-20 06:58:19 51°13.68 2°55.769 23.5 0.5 348 -999
2004-04-20 06:58:24 51°13.682 2°55.769 18.8 1.7 355 -999
2004-04-20 06:58:29 51°13.686 2°55.768 9.4 2.4 355 11.9
2004-04-20 06:58:34 51°13.689 2°55.767   2.6 352 12
2004-04-20 06:58:38 51°13.692 2°55.765 354.8 2.6 345 12.7
2004-04-20 06:58:43 51°13.695 2°55.763 347.6 2.6 345 12.6
2004-04-20 06:58:49 51°13.7 2°55.76 343.3 3.1 335 12.4
2004-04-20 06:58:54 51°13.704 2°55.756 337.1 3.4 329 12.2
2004-04-20 06:58:58 51°13.708 2°55.752 332.2 3.9 327 12
2004-04-20 06:59:04 51°13.713 2°55.745 329.8 4 326 10.9
2004-04-20 06:59:09 51°13.719 2°55.739 328.8 4.6 324 9.8
2004-04-20 06:59:14 51°13.724 2°55.733 329.2 4.8 324 8.9
2004-04-20 06:59:18 51°13.729 2°55.728 330.7 5.1 327 8.3
2004-04-20 06:59:23 51°13.735 2°55.722 332 5.3 327 8.6
2004-04-20 06:59:29 51°13.743 2°55.713 332.4 5.7 328 8.3
2004-04-20 06:59:33 51°13.749 2°55.708 332.4 5.8 326 7.8
2004-04-20 06:59:39 51°13.757 2°55.699 332.4 6 328 8
2004-04-20 06:59:44 51°13.765 2°55.692 333.1 6.1 328 7.9
2004-04-20 06:59:49 51°13.772 2°55.685 334.3 6.4 332 7.9
2004-04-20 06:59:53 51°13.779 2°55.68 336 6.5 333 7.8
2004-04-20 06:59:58 51°13.787 2°55.673 337.5 6.6 334 7.9
2004-04-20 07:00:04 51°13.797 2°55.665 338.1 6.8 334 8
2004-04-20 07:00:09 51°13.806 2°55.659 338.2 6.9 334 8.2
2004-04-20 07:00:14 51°13.815 2°55.652 338.8 7.1 335 8.4
2004-04-20 07:00:19 51°13.824 2°55.645 339.8 7.1 335 8.4
2004-04-20 07:00:24 51°13.833 2°55.639 340.6 7.3 337 8.5
2004-04-20 07:00:29 51°13.843 2°55.632 340.8 7.4 336 8.2
2004-04-20 07:00:33 51°13.851 2°55.627 341.2 5.7 337 7.9
2004-04-20 07:00:43 51°13.87 2°55.614 341.8 1.4 337 8.3
2004-04-20 07:00:46 51°13.875 2°55.611 341.8 6.4 337 8.1
2004-04-20 07:00:51 51°13.884 2°55.604 341.9 7.2 337 7.9
2004-04-20 07:00:57 51°13.895 2°55.597 341.9 6.8 337 8.3
2004-04-20 07:01:02 51°13.903 2°55.591 341.9 6.6 337 7.9
2004-04-20 07:01:07 51°13.911 2°55.586 342 6.6 337 7.9
2004-04-20 07:01:12 51°13.919 2°55.58 342.2 6.4 337 7.8
2004-04-20 07:01:17 51°13.927 2°55.575 342.5 6.3 337 8.1
2004-04-20 07:01:22 51°13.935 2°55.57 342.9 6.2 338 8.4
2004-04-20 07:01:26 51°13.942 2°55.566 343.3 6.2 338 9.3
2004-04-20 07:01:32 51°13.951 2°55.56 343.5 6.1 339 8.9
2004-04-20 07:01:37 51°13.959 2°55.555 344.2 5.9 339 8.8
2004-04-20 07:01:42 51°13.966 2°55.551 344.8 5.9 339 9.2
2004-04-20 07:01:46 51°13.972 2°55.547 345.1 5.8 341 8.8
2004-04-20 07:01:50 51°13.978 2°55.544 345.1 5.8 340 8.9
2004-04-20 07:01:57 51°13.989 2°55.538 345.2 5.6 341 9
2004-04-20 07:02:01 51°13.995 2°55.535 345.3 5.6 341 8.3
2004-04-20 07:02:06 51°14.002 2°55.531 345.3 5.6 341 8.7
2004-04-20 07:02:12 51°14.011 2°55.526 345 5.6 340 8.8
2004-04-20 07:02:17 51°14.019 2°55.521 344.7 5.7 339 8.9
2004-04-20 07:02:22 51°14.026 2°55.517 344.3 5.8 339 8.9
2004-04-20 07:02:26 51°14.032 2°55.513 343.9 5.9 339 9.2
2004-04-20 07:02:32 51°14.041 2°55.507 343.6 5.9 339 9.3
2004-04-20 07:02:37 51°14.049 2°55.502 343.2 6 338 9.4
2004-04-20 07:02:42 51°14.057 2°55.497 342.5 6 337 9.5
2004-04-20 07:02:46 51°14.063 2°55.493 341.9 6 337 9.2
2004-04-20 07:02:52 51°14.073 2°55.486 341.2 6.2 336 9.1
2004-04-20 07:02:57 51°14.081 2°55.48 340.8 6.4 336 9.1
2004-04-20 07:03:02 51°14.089 2°55.474 340.7 6.5 335 8.9
2004-04-20 07:03:06 51°14.096 2°55.469 339.8 6.6 335 9.1
2004-04-20 07:03:12 51°14.106 2°55.46 338.3 6.7 333 9.3
2004-04-20 07:03:17 51°14.114 2°55.453 337.1 6.7 332 9.2
2004-04-20 07:03:21 51°14.121 2°55.447 336.4 7.2 331 9.4
2004-04-20 07:03:27 51°14.132 2°55.437 336 7.4 331 9.5
2004-04-20 07:03:32 51°14.141 2°55.428 335.1 7.7 330 9.2
2004-04-20 07:03:37 51°14.151 2°55.418 333.2 8.4 327 -999
2004-04-20 07:03:42 51°14.161 2°55.407 332 8.7 326 -999
2004-04-20 07:03:46 51°14.17 2°55.399 331.8 8.9 326 -999
2004-04-20 07:03:52 51°14.182 2°55.384 330.6 9.5 324 -999
2004-04-20 07:03:57 51°14.193 2°55.371 328.9 9.7 323 -999
2004-04-20 07:04:02 51°14.204 2°55.357 327.4 10 322 -999
2004-04-20 07:04:06 51°14.212 2°55.346 326.7 10.3 321 9.2
2004-04-20 07:04:12 51°14.226 2°55.328 326.2 10.3 321 9.2
2004-04-20 07:04:17 51°14.237 2°55.312 324.9 10.7 318 9.2
2004-04-20 07:04:21 51°14.245 2°55.299 323 10.8 317 9.1
2004-04-20 07:04:27 51°14.258 2°55.278 321.3 11 315 9.2
2004-04-20 07:04:32 51°14.269 2°55.261 319.6 11 314 9.1
2004-04-20 07:04:37 51°14.279 2°55.242 317.9 11.2 311 9.1
2004-04-20 07:04:42 51°14.289 2°55.223 316.5 11.2 310 9.5
2004-04-20 07:04:46 51°14.297 2°55.207 314.5 11.3 308 9.2
2004-04-20 07:04:52 51°14.308 2°55.184 313.6 11.3 307 9.2
2004-04-20 07:04:57 51°14.318 2°55.163 312.4 11.5 305 9.3
2004-04-20 07:05:02 51°14.327 2°55.142 310.9 11.6 305 9.3
2004-04-20 07:05:06 51°14.334 2°55.125 310.7 11.6 306 9.5
2004-04-20 07:05:12 51°14.346 2°55.1 310.9 11.7 306 9.4
2004-04-20 07:05:16 51°14.353 2°55.083 310.6 11.7 304 8.9
2004-04-20 07:05:21 51°14.362 2°55.061 309.5 11.9 303 9.1
2004-04-20 07:05:27 51°14.372 2°55.034 308 12.1 302 9.1
2004-04-20 07:05:31 51°14.379 2°55.014 305.5 12.4 299 9
2004-04-20 07:05:37 51°14.388 2°54.983 302.1 12.8 294 8.7
2004-04-20 07:05:42 51°14.394 2°54.957 300.3 12.9 293 8.7
2004-04-20 07:05:46 51°14.4 2°54.936 299.1 13.1 293 8.8
2004-04-20 07:05:52 51°14.408 2°54.903 297.6 13.2 291 8.7
2004-04-20 07:05:57 51°14.414 2°54.875 297.1 13.4 289 8.8
2004-04-20 07:06:02 51°14.419 2°54.846 295.7 13.5 286 8.7
2004-04-20 07:06:06 51°14.422 2°54.822 291 13.5 286 8.7
2004-04-20 07:06:12 51°14.424 2°54.786 286.3 13.7 278 8.7
2004-04-20 07:06:17 51°14.425 2°54.755 282.9 13.9 273 8.6
2004-04-20 07:06:21 51°14.426 2°54.731 279.7 13.9 271 8.6
2004-04-20 07:06:26 51°14.426 2°54.7 277 13.9 270 8.6
2004-04-20 07:06:32 51°14.424 2°54.663 274.4 14 266 8.6
2004-04-20 07:06:37 51°14.421 2°54.632 271.8 14 263 8.6
2004-04-20 07:06:42 51°14.418 2°54.601 268.7 14.1 259 8.5
2004-04-20 07:06:46 51°14.413 2°54.577 263.4 14.2 256 8.4
2004-04-20 07:06:52 51°14.406 2°54.541 260.3 14.2 253 8.4
2004-04-20 07:06:57 51°14.399 2°54.512 256.8 14.2 250 8.2
2004-04-20 07:07:01 51°14.394 2°54.488 255.4 14.2 249 8
2004-04-20 07:07:07 51°14.386 2°54.453 254.5 14.1 250 7.8
2004-04-20 07:07:11 51°14.38 2°54.43 254.4 14.1 249 7.7
2004-04-20 07:07:17 51°14.372 2°54.395 254.9 14 249 7.6
2004-04-20 07:07:22 51°14.364 2°54.367 253.6 14 246 7.5
2004-04-20 07:07:27 51°14.355 2°54.339 250.9 14 244 7.5
2004-04-20 07:07:32 51°14.346 2°54.312 248.5 14 242 7.4
2004-04-20 07:07:37 51°14.336 2°54.285 246 14 240 7.3
2004-04-20 07:07:41 51°14.328 2°54.264 244.1 14 239 7.3
2004-04-20 07:07:46 51°14.318 2°54.238 242.6 13.9 238 7.3
2004-04-20 07:07:51 51°14.307 2°54.212 241.4 13.9 237 7.2
2004-04-20 07:07:57 51°14.295 2°54.182 240.4 13.9 237 5.5
2004-04-20 07:08:02 51°14.284 2°54.156 240.1 13.9 236 7.2
2004-04-20 07:08:06 51°14.275 2°54.136 239.8 13.9 236 7.2
2004-04-20 07:08:11 51°14.264 2°54.11 239.8 13.9 236 7.2
2004-04-20 07:08:17 51°14.252 2°54.079 240.3 14 238 7.2
2004-04-20 07:08:22 51°14.242 2°54.053 241.2 14 238 7.2
2004-04-20 07:08:26 51°14.234 2°54.031 243.1 14 240 7.1
2004-04-20 07:08:32 51°14.223 2°53.999 244.5 13.9 241 7.1
2004-04-20 07:08:37 51°14.214 2°53.972 246 13.9 243 7.1
2004-04-20 07:08:42 51°14.206 2°53.944 247.1 13.9 244 7.1
2004-04-20 07:08:46 51°14.199 2°53.922 248.2 13.9 244 7.1
2004-04-20 07:08:52 51°14.189 2°53.889 248.4 13.9 243 7.2
2004-04-20 07:08:57 51°14.18 2°53.862 248.3 13.8 243 7.1
2004-04-20 07:09:02 51°14.171 2°53.835 247.8 13.9 242 7.1
2004-04-20 07:09:07 51°14.162 2°53.808 246.9 13.9 242 7.1
2004-04-20 07:09:12 51°14.153 2°53.781 246.1 13.9 241 7.2
2004-04-20 07:09:17 51°14.143 2°53.754 245.2 14 239 7.2
2004-04-20 07:09:22 51°14.133 2°53.727 244.3 14 240 5.5
2004-04-20 07:09:26 51°14.125 2°53.706 244.1 14 240 7.3
2004-04-20 07:09:32 51°14.114 2°53.673 244 14.1 240 7.3
2004-04-20 07:09:37 51°14.104 2°53.646 244.5 14.1 241 7.3
2004-04-20 07:09:42 51°14.095 2°53.619 245.1 14.1 242 7.3
2004-04-20 07:09:47 51°14.086 2°53.591 246.3 14.1 243 5.5
2004-04-20 07:09:51 51°14.079 2°53.569 247.4 14.1 243 7.3
2004-04-20 07:09:57 51°14.069 2°53.535 248.4 14.2 245 7.4
2004-04-20 07:10:02 51°14.061 2°53.506 249.6 14.2 245 7.4
2004-04-20 07:10:07 51°14.053 2°53.478 250.8 14.2 246 7.4
2004-04-20 07:10:12 51°14.045 2°53.449 251.3 14.2 247 5.6
2004-04-20 07:10:17 51°14.037 2°53.42 251.6 14.1 246 7.5
2004-04-20 07:10:21 51°14.031 2°53.397 251.4 14.2 246 7.5
2004-04-20 07:10:27 51°14.021 2°53.364 250.8 14.2 245 7.5
2004-04-20 07:10:32 51°14.012 2°53.335 249.8 14.2 244 7.5
2004-04-20 07:10:37 51°14.003 2°53.307 248.9 14.3 243 7.6
2004-04-20 07:10:42 51°13.994 2°53.279 248.2 14.3 243 7.7
2004-04-20 07:10:46 51°13.987 2°53.256 247.6 14.3 243 7.6
2004-04-20 07:10:52 51°13.975 2°53.223 247.2 14.4 242 5.6
2004-04-20 07:10:56 51°13.968 2°53.201 246.9 14.4 243 7.7
2004-04-20 07:11:02 51°13.957 2°53.166 247 14.4 243 7.7
2004-04-20 07:11:06 51°13.95 2°53.143 247.7 14.4 244 7.8
2004-04-20 07:11:11 51°13.941 2°53.115 248.2 14.4 243 7.8
2004-04-20 07:11:17 51°13.931 2°53.08 249.3 14.5 245 7.9
2004-04-20 07:11:22 51°13.923 2°53.05 250.3 14.5 246 7.9
2004-04-20 07:11:26 51°13.917 2°53.027 251.1 14.6 246 8
2004-04-20 07:11:32 51°13.908 2°52.991 252 14.6 247 8
2004-04-20 07:11:37 51°13.901 2°52.96 253.9 14.6 251 8.1
2004-04-20 07:11:42 51°13.894 2°52.93 256.2 14.6 251 8.1
2004-04-20 07:11:46 51°13.89 2°52.905 257.8 14.6 254 8.1
2004-04-20 07:11:51 51°13.884 2°52.874 259.5 14.6 254 8.2
2004-04-20 07:11:57 51°13.877 2°52.837 260.5 14.5 253 8.3
2004-04-20 07:12:01 51°13.872 2°52.813 258.6 14.6 250 8.3
2004-04-20 07:12:07 51°13.862 2°52.777 254.7 14.6 250 8.3
2004-04-20 07:12:11 51°13.854 2°52.754 251.6 14.8 243 8.3
2004-04-20 07:12:17 51°13.843 2°52.719 247.5 14.8 241 8.3
2004-04-20 07:12:22 51°13.832 2°52.691 245.8 14.8 240 8.4
2004-04-20 07:12:26 51°13.824 2°52.669 244.8 14.7 240 8.4
2004-04-20 07:12:32 51°13.812 2°52.635 244.5 14.7 240 8.4
2004-04-20 07:12:37 51°13.801 2°52.607 244.4 14.7 239 8.4
2004-04-20 07:12:42 51°13.791 2°52.579 243.6 14.7 239 8.4
2004-04-20 07:12:47 51°13.78 2°52.551 243.1 14.8 238 8.4
2004-04-20 07:12:51 51°13.771 2°52.529 242.4 14.8 238 8.4
2004-04-20 07:12:57 51°13.758 2°52.496 242.1 14.9 238 8.4
2004-04-20 07:13:02 51°13.747 2°52.468 242.1 14.9 238 8.4
2004-04-20 07:13:06 51°13.738 2°52.446 242 14.9 238 8.5
2004-04-20 07:13:12 51°13.725 2°52.413 242.4 14.9 238 8.5
2004-04-20 07:13:17 51°13.714 2°52.384 242.8 14.9 240 8.5
2004-04-20 07:13:22 51°13.704 2°52.356 243.8 14.9 240 8.5
2004-04-20 07:13:26 51°13.696 2°52.333 244.9 14.9 241 8.5
2004-04-20 07:13:32 51°13.684 2°52.298 245.9 14.9 241 8.5
2004-04-20 07:13:37 51°13.675 2°52.269 246.5 14.9 243 8.5
2004-04-20 07:13:42 51°13.665 2°52.24 247.5 14.9 242 8.5
2004-04-20 07:13:47 51°13.656 2°52.211 247.5 14.9 243 8.6
2004-04-20 07:13:52 51°13.646 2°52.181 247.8 14.9 242 8.6
2004-04-20 07:13:57 51°13.636 2°52.152 247.5 14.9 242 8.6
2004-04-20 07:14:02 51°13.626 2°52.124 246.6 14.9 241 8.6
2004-04-20 07:14:06 51°13.618 2°52.101 245.4 14.9 240 8.6
2004-04-20 07:14:12 51°13.605 2°52.067 244 14.9 239 8.6
2004-04-20 07:14:17 51°13.594 2°52.04 242.6 14.9 237 8.6
2004-04-20 07:14:21 51°13.585 2°52.017 241.6 14.9 237 8.6
2004-04-20 07:14:27 51°13.571 2°51.984 240.9 14.9 237 8.6
2004-04-20 07:14:32 51°13.56 2°51.957 240.5 14.9 236 8.6
2004-04-20 07:14:37 51°13.548 2°51.929 240.5 14.9 237 8.7
2004-04-20 07:14:41 51°13.539 2°51.907 240.8 15 237 8.6
2004-04-20 07:14:46 51°13.529 2°51.879 241.7 15 239 8.6
2004-04-20 07:14:51 51°13.518 2°51.851 242.7 15 239 8.6
2004-04-20 07:14:57 51°13.506 2°51.816 243.8 15 241 8.6
2004-04-20 07:15:02 51°13.495 2°51.787 245.2 14.9 241 8.6
2004-04-20 07:15:06 51°13.488 2°51.764 245.9 14.9 243 8.6
2004-04-20 07:15:11 51°13.478 2°51.735 246.9 14.9 242 8.7
2004-04-20 07:15:17 51°13.467 2°51.699 246.9 14.9 242 8.7
2004-04-20 07:15:22 51°13.456 2°51.671 246.5 15 240 8.7
2004-04-20 07:15:26 51°13.448 2°51.648 245.1 15 240 8.7
2004-04-20 07:15:31 51°13.437 2°51.62 244.5 15 240 8.6
2004-04-20 07:15:37 51°13.424 2°51.586 243.2 15 239 8.7
2004-04-20 07:15:42 51°13.413 2°51.558 242.8 14.9 238 8.6
2004-04-20 07:15:47 51°13.402 2°51.529 242 15 238 8.7
2004-04-20 07:15:52 51°13.391 2°51.501 242 15 238 8.7
2004-04-20 07:15:57 51°13.38 2°51.473 242 15 238 8.6
2004-04-20 07:16:01 51°13.372 2°51.45 242.4 15 239 8.7
2004-04-20 07:16:07 51°13.359 2°51.416 243.1 15 239 8.6
2004-04-20 07:16:12 51°13.349 2°51.387 243.8 15 240 8.6
2004-04-20 07:16:16 51°13.341 2°51.365 244.5 15 240 8.6
2004-04-20 07:16:22 51°13.329 2°51.33 245.3 15 240 8.7
2004-04-20 07:16:27 51°13.319 2°51.301 246.1 15 241 8.7
2004-04-20 07:16:31 51°13.311 2°51.277 245.9 15 241 8.7
2004-04-20 07:16:37 51°13.298 2°51.243 245.5 15 240 8.7
2004-04-20 07:16:42 51°13.288 2°51.214 244.9 15 240 8.7
2004-04-20 07:16:46 51°13.279 2°51.192 243.8 15 239 8.8
2004-04-20 07:16:52 51°13.266 2°51.157 243.3 15 239 8.8
2004-04-20 07:16:57 51°13.255 2°51.129 242.5 15 238 8.8
2004-04-20 07:17:01 51°13.246 2°51.107 242.1 15 238 8.8
2004-04-20 07:17:07 51°13.233 2°51.073 241.6 15 237 8.9
2004-04-20 07:17:12 51°13.222 2°51.045 241.6 15.1 238 8.8
2004-04-20 07:17:17 51°13.211 2°51.017 242.1 15 238 8.9
2004-04-20 07:17:22 51°13.2 2°50.988 242.6 15.1 239 8.9
2004-04-20 07:17:26 51°13.192 2°50.965 243.4 15.1 240 8.8
2004-04-20 07:17:31 51°13.182 2°50.936 243.8 15 240 8.9
2004-04-20 07:17:37 51°13.17 2°50.901 245.3 15 241 8.9
2004-04-20 07:17:42 51°13.16 2°50.872 245.5 15 241 8.9
2004-04-20 07:17:47 51°13.15 2°50.843 246.3 15 242 8.9
2004-04-20 07:17:52 51°13.14 2°50.813 246.7 15 242 8.9
2004-04-20 07:17:57 51°13.131 2°50.784 247 15 242 8.9
2004-04-20 07:18:02 51°13.12 2°50.755 246.3 15 241 8.9
2004-04-20 07:18:06 51°13.112 2°50.732 245.5 15 241 8.9
2004-04-20 07:18:12 51°13.099 2°50.697 244.5 15 239 9
2004-04-20 07:18:17 51°13.089 2°50.669 243.8 15 239 9
2004-04-20 07:18:22 51°13.078 2°50.641 243.1 15 238 9
2004-04-20 07:18:27 51°13.067 2°50.612 242.7 15 238 9
2004-04-20 07:18:32 51°13.056 2°50.584 242.6 15 239 9
2004-04-20 07:18:37 51°13.046 2°50.555 242.9 15 239 9.1
2004-04-20 07:18:41 51°13.037 2°50.533 243.4 15 239 9.1
2004-04-20 07:18:46 51°13.027 2°50.504 244.1 15 240 9
2004-04-20 07:18:52 51°13.014 2°50.47 244.8 15 241 9
2004-04-20 07:18:57 51°13.004 2°50.441 245.3 15 242 9
2004-04-20 07:19:02 51°12.994 2°50.412 245.9 15 241 9
2004-04-20 07:19:06 51°12.986 2°50.388 245.7 15 242 9
2004-04-20 07:19:12 51°12.974 2°50.353 245.9 15 241 9.1
2004-04-20 07:19:17 51°12.964 2°50.324 245.9 15.1 241 9.1
2004-04-20 07:19:21 51°12.956 2°50.301 245.7 15 241 9.1
2004-04-20 07:19:27 51°12.943 2°50.267 245 15 240 9.1
2004-04-20 07:19:32 51°12.932 2°50.238 244.1 15 239 9.1
2004-04-20 07:19:37 51°12.921 2°50.21 243.8 15 238 9.2
2004-04-20 07:19:42 51°12.911 2°50.181 243.1 15.1 239 9.2
2004-04-20 07:19:46 51°12.902 2°50.159 242.9 15.1 238 9.2
2004-04-20 07:19:51 51°12.891 2°50.13 242.6 15.1 238 9.1
2004-04-20 07:19:57 51°12.877 2°50.097 242.7 15.1 239 9.2
2004-04-20 07:20:02 51°12.867 2°50.068 243.1 15.1 239 9.1
2004-04-20 07:20:07 51°12.856 2°50.039 243.4 15.1 239 9.1
2004-04-20 07:20:12 51°12.846 2°50.01 243.9 15.1 240 9.1
2004-04-20 07:20:17 51°12.835 2°49.982 244.5 15.1 240 9.1
2004-04-20 07:20:22 51°12.825 2°49.953 244.7 15.1 240 9.2
2004-04-20 07:20:26 51°12.816 2°49.93 244.9 15.1 240 9.2
2004-04-20 07:20:31 51°12.806 2°49.901 244.8 15.1 240 9.2
2004-04-20 07:20:37 51°12.793 2°49.866 244.6 15.1 240 9.2
2004-04-20 07:20:42 51°12.783 2°49.838 244.1 15.1 239 9.2
2004-04-20 07:20:47 51°12.772 2°49.809 243.9 15.1 239 9.2
2004-04-20 07:20:52 51°12.761 2°49.78 243.8 15.1 239 9.2
2004-04-20 07:20:57 51°12.75 2°49.752 243.7 15.1 239 9.2
2004-04-20 07:21:02 51°12.74 2°49.723 243.7 15.1 239 9.2
2004-04-20 07:21:06 51°12.731 2°49.7 243.5 15.1 239 9.2
2004-04-20 07:21:12 51°12.718 2°49.665 244 15.2 240 9.2
2004-04-20 07:21:17 51°12.708 2°49.636 244.5 15.1 240 9.3
2004-04-20 07:21:22 51°12.698 2°49.607 244.9 15.1 241 9.2
2004-04-20 07:21:27 51°12.688 2°49.578 245.3 15.2 241 9.2
2004-04-20 07:21:32 51°12.678 2°49.548 246 15.2 241 9.2
2004-04-20 07:21:37 51°12.668 2°49.519 246 15.2 242 9.3
2004-04-20 07:21:41 51°12.66 2°49.495 246.1 15.2 241 9.3
2004-04-20 07:21:47 51°12.647 2°49.46 245.8 15.2 241 9.3
2004-04-20 07:21:52 51°12.636 2°49.431 244.9 15.2 240 9.3
2004-04-20 07:21:57 51°12.626 2°49.403 244.2 15.2 239 9.3
2004-04-20 07:22:01 51°12.617 2°49.38 243.3 15.2 238 9.3
2004-04-20 07:22:07 51°12.604 2°49.346 243.1 15.2 239 9.3
2004-04-20 07:22:12 51°12.593 2°49.317 242.9 15.2 238 9.4
2004-04-20 07:22:17 51°12.582 2°49.288 242.7 15.2 239 9.4
2004-04-20 07:22:22 51°12.571 2°49.259 243.1 15.2 240 9.3
2004-04-20 07:22:26 51°12.563 2°49.236 243.8 15.2 240 9.4
2004-04-20 07:22:31 51°12.552 2°49.207 244.2 15.2 240 9.4
2004-04-20 07:22:37 51°12.54 2°49.172 244.9 15.2 241 9.3
2004-04-20 07:22:41 51°12.532 2°49.149 245.5 15.2 241 9.4
2004-04-20 07:22:47 51°12.52 2°49.113 245.8 15.1 241 9.4
2004-04-20 07:22:52 51°12.51 2°49.084 246 15.1 241 9.4
2004-04-20 07:22:57 51°12.499 2°49.055 246 15.1 241 9.4
2004-04-20 07:23:02 51°12.489 2°49.026 245.8 15.2 241 9.3
2004-04-20 07:23:06 51°12.481 2°49.002 245.2 15.2 241 9.3
2004-04-20 07:23:11 51°12.47 2°48.974 244.4 15.1 240 9.3
2004-04-20 07:23:17 51°12.457 2°48.939 243.8 15.1 239 9.4
2004-04-20 07:23:21 51°12.448 2°48.917 243.1 15.1 238 9.3
2004-04-20 07:23:27 51°12.435 2°48.882 242.9 15.2 239 9.3
2004-04-20 07:23:32 51°12.424 2°48.854 242.9 15.1 239 9.3
2004-04-20 07:23:37 51°12.413 2°48.825 243.2 15.1 240 9.4
2004-04-20 07:23:42 51°12.403 2°48.796 244 15.1 240 9.3
2004-04-20 07:23:46 51°12.395 2°48.773 244.3 15.1 240 9.4
2004-04-20 07:23:51 51°12.384 2°48.744 244.4 15.1 240 9.3
2004-04-20 07:23:57 51°12.371 2°48.71 244.5 15.1 240 9.4
2004-04-20 07:24:02 51°12.361 2°48.681 244.5 15.1 240 9.3
2004-04-20 07:24:06 51°12.352 2°48.658 244.2 15.1 240 9.4
2004-04-20 07:24:12 51°12.339 2°48.624 243.8 15.1 240 9.3
2004-04-20 07:24:17 51°12.329 2°48.595 243.7 15.1 239 9.4
2004-04-20 07:24:21 51°12.32 2°48.572 243.5 15.1 239 9.4
2004-04-20 07:24:27 51°12.307 2°48.538 243.8 15.2 240 9.4
2004-04-20 07:24:31 51°12.299 2°48.515 244.3 15.1 240 9.3
2004-04-20 07:24:37 51°12.287 2°48.479 245.3 15.1 242 9.4
2004-04-20 07:24:42 51°12.278 2°48.45 246.4 15.1 243 9.4
2004-04-20 07:24:46 51°12.27 2°48.426 248.2 15.1 245 9.4
2004-04-20 07:24:51 51°12.262 2°48.395 249.2 15.1 245 9.4
2004-04-20 07:24:57 51°12.251 2°48.359 250.3 15.1 245 9.5
2004-04-20 07:25:02 51°12.243 2°48.328 251 15.1 247 9.4
2004-04-20 07:25:07 51°12.234 2°48.298 251.2 15.1 246 9.5
2004-04-20 07:25:12 51°12.226 2°48.267 251.3 15.1 246 9.5
2004-04-20 07:25:17 51°12.217 2°48.237 251.3 15.1 245 9.5
2004-04-20 07:25:22 51°12.208 2°48.207 250.6 15.2 245 9.5
2004-04-20 07:25:27 51°12.199 2°48.177 249.7 15.2 245 9.5
2004-04-20 07:25:32 51°12.19 2°48.147 249.1 15.1 244 9.6
2004-04-20 07:25:37 51°12.18 2°48.117 248.6 15.1 244 9.6
2004-04-20 07:25:41 51°12.173 2°48.093 248.6 15.1 244 9.6
2004-04-20 07:25:46 51°12.164 2°48.063 248.6 15.2 244 9.6
2004-04-20 07:25:52 51°12.153 2°48.027 248.9 15.2 244 9.7
2004-04-20 07:25:57 51°12.144 2°47.996 249.5 15.2 245 9.6
2004-04-20 07:26:02 51°12.135 2°47.966 249.9 15.2 245 9.7
2004-04-20 07:26:07 51°12.126 2°47.935 250.6 15.2 246 9.7
2004-04-20 07:26:12 51°12.118 2°47.904 251 15.2 246 9.7
2004-04-20 07:26:17 51°12.109 2°47.874 251.1 15.2 246 9.7
2004-04-20 07:26:21 51°12.102 2°47.849 251.1 15.2 246 9.7
2004-04-20 07:26:27 51°12.092 2°47.813 250.7 15.2 245 9.7
2004-04-20 07:26:32 51°12.083 2°47.782 250.1 15.2 245 9.7
2004-04-20 07:26:37 51°12.074 2°47.752 249.7 15.2 245 9.8
2004-04-20 07:26:42 51°12.064 2°47.722 249.5 15.2 244 9.8
2004-04-20 07:26:46 51°12.057 2°47.697 249.4 15.2 245 9.7
2004-04-20 07:26:51 51°12.048 2°47.667 249.5 15.2 245 9.7
2004-04-20 07:26:57 51°12.038 2°47.63 250.1 15.2 246 9.7
2004-04-20 07:27:02 51°12.029 2°47.6 250.5 15.2 246 9.8
2004-04-20 07:27:07 51°12.021 2°47.569 250.8 15.2 246 9.8
2004-04-20 07:27:12 51°12.012 2°47.538 251.1 15.2 246 9.8
2004-04-20 07:27:17 51°12.004 2°47.507 251.1 15.2 246 9.8
2004-04-20 07:27:22 51°11.995 2°47.477 251.1 15.2 246 9.9
2004-04-20 07:27:26 51°11.988 2°47.452 250.9 15.2 246 9.8
2004-04-20 07:27:32 51°11.977 2°47.415 250.4 15.2 245 9.9
2004-04-20 07:27:37 51°11.969 2°47.385 249.8 15.2 245 9.9
2004-04-20 07:27:41 51°11.961 2°47.361 249.6 15.2 245 9.9
2004-04-20 07:27:47 51°11.95 2°47.324 249.5 15.3 245 9.9
2004-04-20 07:27:51 51°11.943 2°47.3 250 15.3 245 9.9
2004-04-20 07:27:57 51°11.933 2°47.263 250.2 15.2 246 9.9
2004-04-20 07:28:02 51°11.924 2°47.232 250.3 15.2 245 9.8
2004-04-20 07:28:07 51°11.916 2°47.201 250.4 15.2 246 9.9
2004-04-20 07:28:12 51°11.907 2°47.171 250.5 15.2 246 9.9
2004-04-20 07:28:17 51°11.898 2°47.14 250.6 15.2 246 9.9
2004-04-20 07:28:22 51°11.89 2°47.109 250.5 15.2 246 9.9
2004-04-20 07:28:26 51°11.883 2°47.085 250.4 15.2 245 9.9
2004-04-20 07:28:31 51°11.874 2°47.055 250.1 15.2 245 9.9
2004-04-20 07:28:37 51°11.863 2°47.019 249.8 15.3 245 9.9
2004-04-20 07:28:42 51°11.854 2°46.988 249.6 15.2 246 9.9
2004-04-20 07:28:47 51°11.845 2°46.958 250.1 15.2 245 9.9
2004-04-20 07:28:52 51°11.836 2°46.927 250.3 15.2 246 10
2004-04-20 07:28:57 51°11.828 2°46.896 250.6 15.2 246 10
2004-04-20 07:29:01 51°11.821 2°46.871 250.6 15.2 246 10
2004-04-20 07:29:07 51°11.811 2°46.834 250.6 15.2 246 10
2004-04-20 07:29:12 51°11.802 2°46.803 250.7 15.2 246 10
2004-04-20 07:29:17 51°11.793 2°46.772 250.6 15.2 246 10.1
2004-04-20 07:29:22 51°11.785 2°46.742 250.4 15.2 245 10.1
2004-04-20 07:29:26 51°11.778 2°46.717 250.2 15.2 245 10.1
2004-04-20 07:29:32 51°11.767 2°46.68 249.8 15.3 245 10.1
2004-04-20 07:29:36 51°11.76 2°46.656 250 15.2 245 10.1
2004-04-20 07:29:42 51°11.749 2°46.62 249.8 15.2 245 10.2
2004-04-20 07:29:46 51°11.742 2°46.595 249.7 15.2 245 10.2
2004-04-20 07:29:52 51°11.732 2°46.559 249.7 15.2 245 10.2
2004-04-20 07:29:57 51°11.723 2°46.528 249.8 15.2 245 10.2
2004-04-20 07:30:02 51°11.714 2°46.497 250 15.3 246 10.2
2004-04-20 07:30:07 51°11.706 2°46.466 250.6 15.2 246 10.2
2004-04-20 07:30:12 51°11.697 2°46.436 250.8 15.2 246 10.2
2004-04-20 07:30:17 51°11.69 2°46.404 251.5 15.2 248 10.1
2004-04-20 07:30:22 51°11.682 2°46.374 252.4 15.2 248 10.2
2004-04-20 07:30:26 51°11.676 2°46.349 253 15.2 248 10.2
2004-04-20 07:30:32 51°11.667 2°46.311 253.3 15.2 249 10.3
2004-04-20 07:30:37 51°11.659 2°46.28 254 15.2 249 10.3
2004-04-20 07:30:41 51°11.653 2°46.255 254.2 15.2 249 10.2
2004-04-20 07:30:47 51°11.644 2°46.217 254.3 15.2 249 10.2
2004-04-20 07:30:52 51°11.636 2°46.186 254 15.2 249 10.2
2004-04-20 07:30:57 51°11.628 2°46.155 253.7 15.2 248 10.2
2004-04-20 07:31:01 51°11.622 2°46.13 253.3 15.2 248 10.3
2004-04-20 07:31:07 51°11.613 2°46.092 252.9 15.2 248 10.2
2004-04-20 07:31:12 51°11.605 2°46.061 252.8 15.2 248 10.2
2004-04-20 07:31:17 51°11.597 2°46.03 253 15.2 248 10.2
2004-04-20 07:31:22 51°11.589 2°45.999 253.1 15.2 248 10.2
2004-04-20 07:31:26 51°11.583 2°45.974 253.4 15.2 249 10.2
2004-04-20 07:31:31 51°11.576 2°45.942 253.5 15.2 249 10.2
2004-04-20 07:31:37 51°11.567 2°45.905 253.6 15.2 249 10.2
2004-04-20 07:31:42 51°11.559 2°45.873 253.8 15.2 249 10.2
2004-04-20 07:31:47 51°11.552 2°45.842 253.7 15.2 249 10.1
2004-04-20 07:31:52 51°11.544 2°45.811 253.6 15.2 249 10.2
2004-04-20 07:31:57 51°11.537 2°45.78 253.5 15.2 248 10.2
2004-04-20 07:32:02 51°11.529 2°45.749 253.3 15.2 249 10.2
2004-04-20 07:32:06 51°11.523 2°45.724 253.3 15.2 249 10.2
2004-04-20 07:32:11 51°11.515 2°45.692 253.2 15.2 248 10.2
2004-04-20 07:32:17 51°11.506 2°45.655 253.2 15.2 248 10.2
2004-04-20 07:32:22 51°11.498 2°45.624 253.2 15.2 248 10.1
2004-04-20 07:32:27 51°11.49 2°45.592 253 15.2 248 10.1
2004-04-20 07:32:32 51°11.483 2°45.561 253 15.2 248 10.2
2004-04-20 07:32:37 51°11.475 2°45.53 253 15.2 248 10.1
2004-04-20 07:32:42 51°11.467 2°45.499 253.1 15.2 248 10.2
2004-04-20 07:32:47 51°11.459 2°45.468 253.1 15.2 248 10.1
2004-04-20 07:32:52 51°11.452 2°45.437 253.1 15.2 249 10.1
2004-04-20 07:32:57 51°11.444 2°45.405 253.1 15.2 248 10.1
2004-04-20 07:33:02 51°11.436 2°45.374 253.1 15.2 248 10.2
2004-04-20 07:33:06 51°11.43 2°45.349 253.1 15.2 248 10.1
2004-04-20 07:33:12 51°11.421 2°45.312 252.9 15.2 248 10.1
2004-04-20 07:33:17 51°11.413 2°45.281 252.9 15.2 249 10.1
2004-04-20 07:33:22 51°11.405 2°45.249 253.1 15.2 249 10.1
2004-04-20 07:33:27 51°11.398 2°45.218 253.2 15.2 249 10.2
2004-04-20 07:33:32 51°11.39 2°45.187 253.5 15.2 249 10.1
2004-04-20 07:33:37 51°11.383 2°45.156 253.5 15.2 249 10.1
2004-04-20 07:33:41 51°11.376 2°45.131 253.3 15.2 249 10.1
2004-04-20 07:33:46 51°11.369 2°45.1 253 15.2 248 10.1
2004-04-20 07:33:52 51°11.359 2°45.063 252.6 15.2 248 10.1
2004-04-20 07:33:57 51°11.351 2°45.032 252.5 15.1 248 10.1
2004-04-20 07:34:02 51°11.343 2°45.001 252.4 15.1 248 10.1
2004-04-20 07:34:07 51°11.336 2°44.97 252.6 15.2 249 10.1
2004-04-20 07:34:12 51°11.328 2°44.938 253.3 15.2 249 10.2
2004-04-20 07:34:17 51°11.321 2°44.907 253.4 15.2 249 10.1
2004-04-20 07:34:22 51°11.313 2°44.876 253.6 15.2 249 10.1
2004-04-20 07:34:27 51°11.306 2°44.845 253.7 15.1 249 10.1
2004-04-20 07:34:32 51°11.298 2°44.814 253.7 15.1 249 10.1
2004-04-20 07:34:37 51°11.29 2°44.783 253.7 15.1 249 10.1
2004-04-20 07:34:42 51°11.283 2°44.752 253.5 15.1 249 10.1
2004-04-20 07:34:46 51°11.276 2°44.727 253.2 15.1 248 10.1
2004-04-20 07:34:52 51°11.267 2°44.69 253 15.1 249 10.1
2004-04-20 07:34:57 51°11.259 2°44.659 252.6 15.1 248 10.1
2004-04-20 07:35:02 51°11.252 2°44.628 252.8 15.1 249 10
2004-04-20 07:35:06 51°11.245 2°44.603 253 15.1 249 10
2004-04-20 07:35:12 51°11.236 2°44.565 253 15.1 249 10
2004-04-20 07:35:17 51°11.228 2°44.534 253.1 15.1 249 10.1
2004-04-20 07:35:22 51°11.221 2°44.503 253.1 15.2 249 10
2004-04-20 07:35:26 51°11.215 2°44.478 253.3 15.1 249 10
2004-04-20 07:35:32 51°11.206 2°44.44 253.3 15.1 249 10
2004-04-20 07:35:37 51°11.198 2°44.409 253.3 15.1 249 10
2004-04-20 07:35:42 51°11.19 2°44.378 253.1 15.1 249 10
2004-04-20 07:35:46 51°11.184 2°44.353 253 15.1 249 10
2004-04-20 07:35:52 51°11.175 2°44.316 253.3 15.1 249 9.9
2004-04-20 07:35:57 51°11.168 2°44.285 253.4 15.1 249 10
2004-04-20 07:36:01 51°11.162 2°44.26 253.5 15.1 249 10
2004-04-20 07:36:06 51°11.154 2°44.229 253.5 15.1 249 10
2004-04-20 07:36:11 51°11.147 2°44.198 253.4 15.1 249 10
2004-04-20 07:36:17 51°11.138 2°44.16 253.2 15.1 248 10
2004-04-20 07:36:22 51°11.13 2°44.129 253 15.1 248 10
2004-04-20 07:36:27 51°11.122 2°44.098 252.8 15.1 249 10
2004-04-20 07:36:32 51°11.115 2°44.067 253.1 15.1 249 10
2004-04-20 07:36:37 51°11.108 2°44.036 253.3 15.1 249 10
2004-04-20 07:36:42 51°11.1 2°44.004 253.5 15.1 249 9.9
2004-04-20 07:36:46 51°11.094 2°43.98 253.6 15.1 249 10
2004-04-20 07:36:51 51°11.087 2°43.948 253.7 15.1 249 10
2004-04-20 07:36:56 51°11.08 2°43.917 253.8 15.1 249 10
2004-04-20 07:37:02 51°11.071 2°43.879 253.7 15.1 249 10
2004-04-20 07:37:07 51°11.064 2°43.848 253.7 15.1 249 10
2004-04-20 07:37:11 51°11.058 2°43.823 253.4 15.1 249 10
2004-04-20 07:37:17 51°11.048 2°43.786 253.1 15.1 248 10
2004-04-20 07:37:22 51°11.04 2°43.755 252.5 15.1 248 9.9
2004-04-20 07:37:26 51°11.034 2°43.73 252.4 15.1 248 10
2004-04-20 07:37:31 51°11.027 2°43.7 252.4 15.1 248 10
2004-04-20 07:37:37 51°11.018 2°43.662 252.5 15 249 9.9
2004-04-20 07:37:42 51°11.01 2°43.631 253.2 15 249 10
2004-04-20 07:37:46 51°11.004 2°43.606 253.4 15 249 9.9
2004-04-20 07:37:52 51°10.996 2°43.569 253.5 15 249 9.9
2004-04-20 07:37:57 51°10.988 2°43.537 253.8 15.1 249 9.9
2004-04-20 07:38:02 51°10.981 2°43.506 253.8 15.1 249 10
2004-04-20 07:38:07 51°10.974 2°43.475 253.8 15 249 9.9
2004-04-20 07:38:12 51°10.966 2°43.444 253.5 15 249 9.9
2004-04-20 07:38:17 51°10.959 2°43.413 253.1 15.1 248 9.9
2004-04-20 07:38:22 51°10.951 2°43.382 253 15 249 9.9
2004-04-20 07:38:26 51°10.945 2°43.357 252.8 15.1 249 9.9
2004-04-20 07:38:31 51°10.938 2°43.326 253 15.1 249 10
2004-04-20 07:38:37 51°10.929 2°43.289 253.2 15 249 9.9
2004-04-20 07:38:42 51°10.921 2°43.258 253.3 15 249 9.9
2004-04-20 07:38:47 51°10.914 2°43.227 253.3 15 249 9.9
2004-04-20 07:38:52 51°10.906 2°43.196 253.2 15 249 9.9
2004-04-20 07:38:57 51°10.899 2°43.165 253.2 15 249 9.9
2004-04-20 07:39:02 51°10.891 2°43.134 253.2 15 249 9.9
2004-04-20 07:39:06 51°10.885 2°43.109 253.2 15 249 9.8
2004-04-20 07:39:12 51°10.877 2°43.072 253.2 15 249 9.9
2004-04-20 07:39:17 51°10.869 2°43.041 253.4 15 249 9.9
2004-04-20 07:39:21 51°10.863 2°43.017 253.4 15 249 9.8
2004-04-20 07:39:26 51°10.856 2°42.986 253.4 15 249 9.9
2004-04-20 07:39:32 51°10.847 2°42.948 253.4 15 249 9.9
2004-04-20 07:39:37 51°10.839 2°42.918 253.4 15 249 9.9
2004-04-20 07:39:42 51°10.832 2°42.887 253.3 15 249 9.9
2004-04-20 07:39:47 51°10.824 2°42.856 253.2 15 249 9.9
2004-04-20 07:39:52 51°10.817 2°42.825 253.3 15 249 9.9
2004-04-20 07:39:57 51°10.81 2°42.794 253.7 15 250 9.9
2004-04-20 07:40:02 51°10.803 2°42.763 253.9 15 250 9.8
2004-04-20 07:40:06 51°10.797 2°42.738 254 15 250 9.8
2004-04-20 07:40:12 51°10.788 2°42.701 254 15 250 9.8
2004-04-20 07:40:16 51°10.782 2°42.676 254 15 249 9.9
2004-04-20 07:40:22 51°10.773 2°42.639 253.7 15 249 9.8
2004-04-20 07:40:27 51°10.766 2°42.608 253.3 15 249 9.8
2004-04-20 07:40:32 51°10.758 2°42.578 252.9 15 249 9.8
2004-04-20 07:40:37 51°10.751 2°42.547 252.9 15 249 9.8
2004-04-20 07:40:41 51°10.744 2°42.522 252.9 15 249 9.8
2004-04-20 07:40:47 51°10.736 2°42.485 252.9 15 249 9.8
2004-04-20 07:40:52 51°10.728 2°42.454 253.3 15 249 9.8
2004-04-20 07:40:57 51°10.721 2°42.423 253.4 15 249 9.8
2004-04-20 07:41:02 51°10.713 2°42.393 253.5 15 249 9.8
2004-04-20 07:41:07 51°10.706 2°42.362 253.5 15 249 9.8
2004-04-20 07:41:11 51°10.7 2°42.337 253.2 15 249 9.8
2004-04-20 07:41:17 51°10.691 2°42.3 252.8 15 249 9.8
2004-04-20 07:41:22 51°10.683 2°42.269 252.8 15 249 9.8
2004-04-20 07:41:26 51°10.678 2°42.245 253.2 15 250 9.8
2004-04-20 07:41:31 51°10.67 2°42.214 253.5 15 249 9.8
2004-04-20 07:41:37 51°10.662 2°42.176 253.7 15 249 9.8
2004-04-20 07:41:42 51°10.654 2°42.145 253.7 15 249 9.8
2004-04-20 07:41:46 51°10.649 2°42.121 253.7 15 249 9.8
2004-04-20 07:41:52 51°10.64 2°42.084 253.4 15 249 9.8
2004-04-20 07:41:57 51°10.632 2°42.053 253 15 249 9.8
2004-04-20 07:42:02 51°10.625 2°42.022 252.8 15 249 9.8
2004-04-20 07:42:07 51°10.617 2°41.991 252.8 15 249 9.8
2004-04-20 07:42:12 51°10.61 2°41.96 252.9 15 249 9.8
2004-04-20 07:42:17 51°10.602 2°41.929 253.3 15 249 9.8
2004-04-20 07:42:22 51°10.595 2°41.898 253.6 14.9 249 9.8
2004-04-20 07:42:26 51°10.589 2°41.874 253.5 15 249 9.8
2004-04-20 07:42:31 51°10.582 2°41.843 253.3 15 249 9.8
2004-04-20 07:42:37 51°10.573 2°41.806 253.1 15 249 9.8
2004-04-20 07:42:42 51°10.565 2°41.775 253.1 15 249 9.8
2004-04-20 07:42:47 51°10.558 2°41.744 253 15 249 9.8
2004-04-20 07:42:52 51°10.551 2°41.713 253.2 15 249 9.8
2004-04-20 07:42:57 51°10.544 2°41.682 253.6 15 250 9.8
2004-04-20 07:43:02 51°10.536 2°41.651 253.9 15 250 9.8
2004-04-20 07:43:06 51°10.531 2°41.626 254 15 250 9.8
2004-04-20 07:43:11 51°10.524 2°41.595 254 15 250 9.8
2004-04-20 07:43:17 51°10.515 2°41.558 253.8 15 249 9.8
2004-04-20 07:43:22 51°10.507 2°41.527 253.4 15 249 9.8
2004-04-20 07:43:27 51°10.5 2°41.496 252.9 15 248 9.8
2004-04-20 07:43:32 51°10.492 2°41.466 252.4 15 248 9.8
2004-04-20 07:43:37 51°10.484 2°41.435 252 15 248 9.8
2004-04-20 07:43:42 51°10.476 2°41.404 251.8 15 248 9.8
2004-04-20 07:43:47 51°10.469 2°41.374 252.2 15 248 9.8
2004-04-20 07:43:52 51°10.461 2°41.343 252.6 15 249 9.8
2004-04-20 07:43:57 51°10.454 2°41.312 253.1 15 250 9.8
2004-04-20 07:44:01 51°10.449 2°41.287 253.8 15 250 9.8
2004-04-20 07:44:06 51°10.442 2°41.256 254.2 15 250 9.8
2004-04-20 07:44:12 51°10.434 2°41.219 254.7 15 251 9.8
2004-04-20 07:44:17 51°10.427 2°41.188 254.5 15 250 9.8
2004-04-20 07:44:22 51°10.42 2°41.157 254.4 15 250 9.8
2004-04-20 07:44:27 51°10.413 2°41.126 253.8 15 250 9.8
2004-04-20 07:44:32 51°10.405 2°41.095 253.3 15 249 9.8
2004-04-20 07:44:36 51°10.399 2°41.07 253 15 249 9.8
2004-04-20 07:44:42 51°10.39 2°41.034 253 15 249 9.9
2004-04-20 07:44:46 51°10.385 2°41.009 252.9 15 249 9.8
2004-04-20 07:44:52 51°10.376 2°40.972 252.9 15 249 9.9
2004-04-20 07:44:57 51°10.368 2°40.941 253.1 15 249 9.9
2004-04-20 07:45:02 51°10.362 2°40.91 253.2 15 250 9.8
2004-04-20 07:45:07 51°10.354 2°40.879 253.3 15 249 9.9
2004-04-20 07:45:12 51°10.347 2°40.848 253.2 15 249 9.9
2004-04-20 07:45:16 51°10.341 2°40.824 252.9 15 249 9.9
2004-04-20 07:45:22 51°10.332 2°40.787 252.9 15 249 9.9
2004-04-20 07:45:26 51°10.326 2°40.762 252.9 15 249 9.9
2004-04-20 07:45:32 51°10.318 2°40.725 253.2 14.9 249 9.9
2004-04-20 07:45:37 51°10.31 2°40.694 253.4 15 250 9.9
2004-04-20 07:45:42 51°10.303 2°40.663 253.6 15 250 9.9
2004-04-20 07:45:47 51°10.296 2°40.632 253.8 15 250 9.9
2004-04-20 07:45:52 51°10.289 2°40.602 253.7 15 250 9.9
2004-04-20 07:45:57 51°10.282 2°40.571 253.7 14.9 250 9.9
2004-04-20 07:46:02 51°10.274 2°40.54 253.6 14.9 250 9.9
2004-04-20 07:46:07 51°10.267 2°40.509 253.6 14.9 249 9.9
2004-04-20 07:46:12 51°10.26 2°40.478 253.3 14.9 249 9.9
2004-04-20 07:46:17 51°10.253 2°40.447 253.3 14.9 249 10
2004-04-20 07:46:22 51°10.245 2°40.416 252.9 14.9 249 10
2004-04-20 07:46:26 51°10.239 2°40.391 252.8 15 249 10
2004-04-20 07:46:32 51°10.231 2°40.354 253 14.9 249 10
2004-04-20 07:46:37 51°10.224 2°40.323 253.3 14.9 250 10
2004-04-20 07:46:41 51°10.218 2°40.299 253.4 14.9 250 10
2004-04-20 07:46:47 51°10.209 2°40.262 253.4 14.9 249 10
2004-04-20 07:46:52 51°10.202 2°40.231 253 14.9 249 10
2004-04-20 07:46:57 51°10.194 2°40.2 252.9 14.9 249 10
2004-04-20 07:47:02 51°10.187 2°40.17 252.9 14.9 250 10
2004-04-20 07:47:06 51°10.182 2°40.145 253.3 14.9 250 10.1
2004-04-20 07:47:12 51°10.173 2°40.108 253.2 14.9 249 10.1
2004-04-20 07:47:17 51°10.166 2°40.077 253.1 14.9 249 10.1
2004-04-20 07:47:22 51°10.159 2°40.046 253.2 14.9 250 10
2004-04-20 07:47:27 51°10.152 2°40.016 253.3 14.9 250 10.1
2004-04-20 07:47:32 51°10.145 2°39.985 253.3 14.9 249 10.1
2004-04-20 07:47:37 51°10.137 2°39.954 253.2 14.9 249 10.1
2004-04-20 07:47:42 51°10.13 2°39.924 252.9 14.9 249 10.1
2004-04-20 07:47:46 51°10.124 2°39.899 252.9 14.9 249 10.1
2004-04-20 07:47:52 51°10.116 2°39.862 253 14.9 249 10.1
2004-04-20 07:47:57 51°10.109 2°39.831 253.4 14.9 250 10.1
2004-04-20 07:48:02 51°10.102 2°39.8 253.8 14.9 250 10.1
2004-04-20 07:48:07 51°10.095 2°39.769 253.9 15 250 10.1
2004-04-20 07:48:12 51°10.087 2°39.738 253.6 15 250 10.1
2004-04-20 07:48:17 51°10.08 2°39.707 253.2 14.9 249 10.1
2004-04-20 07:48:22 51°10.073 2°39.676 252.9 14.9 249 10.1
2004-04-20 07:48:27 51°10.065 2°39.646 252.9 14.9 249 10.2
2004-04-20 07:48:32 51°10.058 2°39.615 252.7 14.9 249 10.1
2004-04-20 07:48:37 51°10.05 2°39.584 252.7 15 249 10.2
2004-04-20 07:48:41 51°10.045 2°39.559 252.9 15 250 10.2
2004-04-20 07:48:46 51°10.038 2°39.528 253.4 14.9 250 10.2
2004-04-20 07:48:52 51°10.029 2°39.491 253.4 14.9 250 10.2
2004-04-20 07:48:57 51°10.022 2°39.46 253.6 14.9 250 10.2
2004-04-20 07:49:02 51°10.015 2°39.429 253.6 14.9 250 10.3
2004-04-20 07:49:06 51°10.009 2°39.405 253.5 14.9 250 10.3
2004-04-20 07:49:12 51°10 2°39.367 253.3 14.9 250 10.3
2004-04-20 07:49:17 51°9.993 2°39.336 253.3 15 249 10.3
2004-04-20 07:49:21 51°9.987 2°39.312 253.1 15 250 10.4
2004-04-20 07:49:26 51°9.98 2°39.281 253.2 15 250 10.4
2004-04-20 07:49:32 51°9.971 2°39.243 253.4 15 250 10.5
2004-04-20 07:49:37 51°9.964 2°39.212 253.7 15 250 10.5
2004-04-20 07:49:42 51°9.957 2°39.181 254 15 250 10.5
2004-04-20 07:49:46 51°9.951 2°39.156 253.9 15 250 10.6
2004-04-20 07:49:52 51°9.943 2°39.119 253.6 15 250 10.6
2004-04-20 07:49:57 51°9.935 2°39.088 253.2 15 250 10.7
2004-04-20 07:50:02 51°9.928 2°39.057 253.3 15 250 10.7
2004-04-20 07:50:06 51°9.922 2°39.032 253.4 15 250 10.7
2004-04-20 07:50:12 51°9.914 2°38.994 253.4 15 250 10.8
2004-04-20 07:50:17 51°9.907 2°38.963 253.4 15 250 10.7
2004-04-20 07:50:22 51°9.899 2°38.932 253.4 15 250 10.8
2004-04-20 07:50:27 51°9.892 2°38.901 253.3 15 250 10.8
2004-04-20 07:50:32 51°9.885 2°38.87 253.2 15 250 10.8
2004-04-20 07:50:37 51°9.878 2°38.839 253.1 15 250 10.8
2004-04-20 07:50:42 51°9.871 2°38.808 253.2 15 250 10.9
2004-04-20 07:50:47 51°9.863 2°38.777 253.3 15 250 10.9
2004-04-20 07:50:52 51°9.856 2°38.746 253.6 15 250 11
2004-04-20 07:50:56 51°9.851 2°38.721 253.8 15 250 11
2004-04-20 07:51:01 51°9.844 2°38.69 253.7 15 250 11
2004-04-20 07:51:07 51°9.835 2°38.652 253.7 15 250 11.1
2004-04-20 07:51:12 51°9.828 2°38.621 253.3 15 249 11.1
2004-04-20 07:51:17 51°9.82 2°38.59 253.1 15 249 11.1
2004-04-20 07:51:22 51°9.813 2°38.56 252.9 15 249 11.2
2004-04-20 07:51:26 51°9.807 2°38.535 252.9 15 250 11.2
2004-04-20 07:51:32 51°9.798 2°38.497 253.3 15 250 11.2
2004-04-20 07:51:37 51°9.791 2°38.466 253.7 15 250 11.3
2004-04-20 07:51:42 51°9.784 2°38.435 253.8 15 250 11.4
2004-04-20 07:51:46 51°9.778 2°38.41 253.9 15 250 11.4
2004-04-20 07:51:52 51°9.77 2°38.373 253.9 15.1 250 11.4
2004-04-20 07:51:57 51°9.762 2°38.341 253.5 15 250 11.6
2004-04-20 07:52:01 51°9.756 2°38.317 253.1 15.1 249 11.6
2004-04-20 07:52:06 51°9.749 2°38.285 253.1 15.1 249 11.6
2004-04-20 07:52:12 51°9.74 2°38.248 253.1 15.1 249 11.6
2004-04-20 07:52:17 51°9.733 2°38.217 252.8 15.1 250 11.6
2004-04-20 07:52:22 51°9.726 2°38.186 253.1 15.1 250 11.7
2004-04-20 07:52:27 51°9.719 2°38.154 253.5 15 250 11.7
2004-04-20 07:52:32 51°9.712 2°38.123 253.6 15 250 11.7
2004-04-20 07:52:37 51°9.704 2°38.092 253.3 15 249 11.7
2004-04-20 07:52:42 51°9.697 2°38.061 253.2 15 250 11.8
2004-04-20 07:52:46 51°9.691 2°38.036 252.9 15 249 11.8
2004-04-20 07:52:52 51°9.682 2°37.999 252.7 15 249 11.8
2004-04-20 07:52:57 51°9.675 2°37.968 253 15 250 11.9
2004-04-20 07:53:02 51°9.667 2°37.937 253.3 15 250 11.9
2004-04-20 07:53:06 51°9.662 2°37.912 253.5 15 250 12
2004-04-20 07:53:12 51°9.653 2°37.874 253.4 15 249 12
2004-04-20 07:53:17 51°9.646 2°37.843 253.2 15 250 12.1
2004-04-20 07:53:22 51°9.638 2°37.812 253.2 15 249 12.1
2004-04-20 07:53:26 51°9.633 2°37.787 253.2 15 250 12.1
2004-04-20 07:53:32 51°9.624 2°37.75 253.3 15.1 250 12.2
2004-04-20 07:53:37 51°9.617 2°37.719 253.6 15 250 12.2
2004-04-20 07:53:42 51°9.61 2°37.688 253.6 15.1 250 12.2
2004-04-20 07:53:46 51°9.604 2°37.663 253.3 15.1 250 12.3
2004-04-20 07:53:52 51°9.595 2°37.625 253.2 15.1 250 12.3
2004-04-20 07:53:56 51°9.589 2°37.6 253.2 15.1 250 12.4
2004-04-20 07:54:01 51°9.582 2°37.569 253.5 15.1 250 12.4
2004-04-20 07:54:07 51°9.574 2°37.532 253.5 15.1 250 12.4
2004-04-20 07:54:12 51°9.566 2°37.501 253.2 15.1 250 12.5
2004-04-20 07:54:17 51°9.559 2°37.469 253 15.1 250 12.6
2004-04-20 07:54:22 51°9.551 2°37.438 253 15.1 250 12.7
2004-04-20 07:54:26 51°9.545 2°37.413 252.8 15.1 249 12.8
2004-04-20 07:54:31 51°9.538 2°37.382 252.8 15.1 250 12.9
2004-04-20 07:54:37 51°9.53 2°37.344 253.3 15.1 250 12.9
2004-04-20 07:54:42 51°9.522 2°37.313 253.4 15.1 250 13
2004-04-20 07:54:47 51°9.515 2°37.282 253.5 15.2 250 13
2004-04-20 07:54:52 51°9.507 2°37.25 253.5 15.2 250 13.2
2004-04-20 07:54:57 51°9.5 2°37.219 253.4 15.2 249 13.2
2004-04-20 07:55:02 51°9.493 2°37.188 253.2 15.2 250 13.3
2004-04-20 07:55:06 51°9.487 2°37.163 252.7 15.2 249 13.4
2004-04-20 07:55:12 51°9.478 2°37.125 252.9 15.2 250 13.5
2004-04-20 07:55:17 51°9.471 2°37.093 253.8 15.2 250 13.6
2004-04-20 07:55:22 51°9.463 2°37.062 253.9 15.2 250 13.5
2004-04-20 07:55:27 51°9.456 2°37.03 253.5 15.2 250 13.6
2004-04-20 07:55:32 51°9.45 2°36.999 254.1 15.2 251 13.6
2004-04-20 07:55:37 51°9.443 2°36.967 255.2 15.2 252 13.7
2004-04-20 07:55:42 51°9.437 2°36.935 256.6 15.2 253 13.7
2004-04-20 07:55:46 51°9.432 2°36.909 256.9 15.2 253 13.6
2004-04-20 07:55:51 51°9.425 2°36.877 256 15.2 251 13.7
2004-04-20 07:55:57 51°9.417 2°36.84 254.5 15.2 250 13.9
2004-04-20 07:56:02 51°9.41 2°36.808 254.1 15.2 251 14
2004-04-20 07:56:07 51°9.403 2°36.777 254.4 15.1 251 14
2004-04-20 07:56:12 51°9.396 2°36.748 253.8 14.6 250 14
2004-04-20 07:56:17 51°9.389 2°36.721 252.8 13 248 14.1
2004-04-20 07:56:22 51°9.382 2°36.697 251.3 13 248 14
2004-04-20 07:56:26 51°9.377 2°36.679 249.4 11.6 245 14.2
2004-04-20 07:56:31 51°9.37 2°36.657 246.9 10.8 242 14.2
2004-04-20 07:56:37 51°9.361 2°36.635 243.3 10 238 14.2
2004-04-20 07:56:42 51°9.354 2°36.618 239.1 9.5 236 14.2
2004-04-20 07:56:47 51°9.346 2°36.602 235.1 9.1 233 14.3
2004-04-20 07:56:52 51°9.339 2°36.588 231 8.6 231 14.4
2004-04-20 07:56:57 51°9.331 2°36.576 227.6 7.9 227 14.3
2004-04-20 07:57:02 51°9.324 2°36.564 224.2 7.6 225 14.3
2004-04-20 07:57:06 51°9.318 2°36.556 221 7.3 223 14.3
2004-04-20 07:57:12 51°9.309 2°36.544 217.9 7.1 221 14.2
2004-04-20 07:57:17 51°9.302 2°36.535 215.2 6.6 218 14.3
2004-04-20 07:57:22 51°9.295 2°36.527 213.1 6.4 217 14.2
2004-04-20 07:57:27 51°9.288 2°36.519 210.5 6.2 216 14.1
2004-04-20 07:57:30 51°9.284 2°36.515 207.6 5.9 213 14.2
2004-04-20 07:57:37 51°9.274 2°36.505 205.3 5.7 212 14.1
2004-04-20 07:57:42 51°9.268 2°36.499 203.1 5.5 211 14
2004-04-20 07:57:47 51°9.262 2°36.493 202.2 5.4 212 14
2004-04-20 07:57:52 51°9.255 2°36.487 201.9 5.3 211 13.9
2004-04-20 07:57:57 51°9.249 2°36.48 203.8 5.4 214 13.8
2004-04-20 07:58:01 51°9.244 2°36.474 207.6 5.4 217 13.8
2004-04-20 07:58:06 51°9.239 2°36.467 212.7 5.4 218 13.7
2004-04-20 07:58:12 51°9.232 2°36.457 218.4 5.4 218 13.6
2004-04-20 07:58:17 51°9.228 2°36.449 222.8 5 226 13.5
2004-04-20 07:58:22 51°9.223 2°36.441 225.2 4.9 228 13.5
2004-04-20 07:58:27 51°9.219 2°36.434 226.2 4.7 229 13.5
2004-04-20 07:58:32 51°9.216 2°36.426 227.8 4.1 230 13.5
2004-04-20 07:58:37 51°9.213 2°36.42 231.1 3.6 234 13.5
2004-04-20 07:58:42 51°9.211 2°36.414 234.4 3.3 236 13.5
2004-04-20 07:58:46 51°9.209 2°36.41 239.5 3 238 13.5
2004-04-20 07:58:52 51°9.207 2°36.404 243.1 2.5 241 13.5
2004-04-20 07:58:57 51°9.206 2°36.4 248.4 2.1 241 13.5
2004-04-20 07:59:02 51°9.204 2°36.397 252.5 1.8 242 13.5
2004-04-20 07:59:07 51°9.204 2°36.394 256 1.5 240 13.5
2004-04-20 07:59:12 51°9.203 2°36.392 259.1 1.3 238 13.5
2004-04-20 07:59:17 51°9.202 2°36.39 261.7 1.3 241 13.5
2004-04-20 07:59:21 51°9.201 2°36.388 263.8 1.3 240 13.5
2004-04-20 07:59:27 51°9.2 2°36.385 265.3 1.2 241 13.5
2004-04-20 07:59:32 51°9.199 2°36.382 266.3 1.3 241 13.5
2004-04-20 07:59:37 51°9.198 2°36.38 267.4 1.3 241 13.5
2004-04-20 07:59:42 51°9.198 2°36.377 268.7 1.3 242 13.5
2004-04-20 07:59:47 51°9.197 2°36.375 269.5 1.3 241 4.9
2004-04-20 07:59:52 51°9.196 2°36.372 270.2 1.3 243 4.7
2004-04-20 07:59:57 51°9.195 2°36.37 271.1 1.3 243 -999
2004-04-20 08:00:02 51°9.194 2°36.367 271.8 1.3 243 -999
2004-04-20 08:00:07 51°9.193 2°36.365 272.6 1.3 243 4.7
2004-04-20 08:00:12 51°9.193 2°36.362 273.2 1.3 244 4.8
2004-04-20 08:00:17 51°9.192 2°36.359 273.8 1.3 244 -999
2004-04-20 08:00:22 51°9.191 2°36.357 274.3 1.3 244 -999
2004-04-20 08:00:27 51°9.19 2°36.354 274.7 1.3 244 -999
2004-04-20 08:00:32 51°9.189 2°36.351 275 1.3 245 -999
2004-04-20 08:00:37 51°9.189 2°36.348 275.4 1.3 245 4.8
2004-04-20 08:00:42 51°9.188 2°36.346 275.7 1.3 245 13.7
2004-04-20 08:00:48 51°9.187 2°36.343 276 1.3 244 4.8
2004-04-20 08:00:52 51°9.186 2°36.341 276.4 1.3 246 4.9
2004-04-20 08:00:57 51°9.185 2°36.338 276.6 1.3 246 4.8
2004-04-20 08:01:02 51°9.185 2°36.335 277 1.3 247 4.8
2004-04-20 08:01:06 51°9.184 2°36.333 277.2 1.4 245 5.1
2004-04-20 08:01:12 51°9.183 2°36.33 277.5 1.3 246 4.8
2004-04-20 08:01:17 51°9.182 2°36.327 277.8 1.4 245 13.6
2004-04-20 08:01:22 51°9.181 2°36.324 277.9 1.4 246 5
2004-04-20 08:01:26 51°9.181 2°36.322 278.1 1.4 246 4.7
2004-04-20 08:01:32 51°9.18 2°36.319 278.3 1.4 246 4.9
2004-04-20 08:01:37 51°9.179 2°36.316 278.5 1.4 246 4.8
2004-04-20 08:01:42 51°9.178 2°36.313 278.7 1.4 247 4.8
2004-04-20 08:01:46 51°9.177 2°36.311 278.8 1.4 246 4.6
2004-04-20 08:01:52 51°9.177 2°36.308 279 1.4 247 4.7
2004-04-20 08:01:57 51°9.176 2°36.305 279.1 1.4 248 4.8
2004-04-20 08:02:02 51°9.175 2°36.302 279.4 1.4 247 4.7
2004-04-20 08:02:07 51°9.174 2°36.299 279.4 1.4 247 4.8
2004-04-20 08:02:12 51°9.173 2°36.296 279.4 1.4 248 4.7
2004-04-20 08:02:17 51°9.173 2°36.293 279.5 1.4 248 4.7
2004-04-20 08:02:21 51°9.172 2°36.291 279.5 1.4 248 4.7
2004-04-20 08:02:27 51°9.171 2°36.288 279.6 1.4 248 4.8
2004-04-20 08:02:32 51°9.17 2°36.285 279.6 1.4 248 4.9
2004-04-20 08:02:37 51°9.169 2°36.282 279.5 1.4 250 13.8
2004-04-20 08:02:42 51°9.168 2°36.279 279.4 1.4 247 13.8
2004-04-20 08:02:46 51°9.168 2°36.277 279.4 1.4 249 13.8
2004-04-20 08:02:52 51°9.167 2°36.273 279.3 1.4 249 13.8
2004-04-20 08:02:56 51°9.166 2°36.271 279 1.4 249 13.7
2004-04-20 08:03:02 51°9.165 2°36.267 279 1.4 249 13.7
2004-04-20 08:03:07 51°9.165 2°36.264 278.8 1.4 249 13.8
2004-04-20 08:03:12 51°9.164 2°36.261 278.7 1.5 250 13.7
2004-04-20 08:03:17 51°9.163 2°36.258 278.4 1.4 250 13.7
2004-04-20 08:03:21 51°9.163 2°36.256 278.3 1.5 250 13.7
2004-04-20 08:03:26 51°9.162 2°36.253 278.1 1.4 253 13.7
2004-04-20 08:03:32 51°9.161 2°36.249 277.8 1.4 251 13.7
2004-04-20 08:03:37 51°9.161 2°36.246 277.5 1.5 250 13.7
2004-04-20 08:03:42 51°9.16 2°36.243 277.3 1.4 251 13.7
2004-04-20 08:03:47 51°9.159 2°36.24 277.1 1.5 250 13.7
2004-04-20 08:03:52 51°9.159 2°36.237 276.7 1.5 252 13.8
2004-04-20 08:03:57 51°9.158 2°36.234 276.5 1.5 250 13.8
2004-04-20 08:04:01 51°9.158 2°36.231 276.3 1.5 251 13.8
2004-04-20 08:04:06 51°9.157 2°36.228 276.1 1.5 251 13.8
2004-04-20 08:04:12 51°9.156 2°36.224 275.8 1.5 252 13.8
2004-04-20 08:04:17 51°9.156 2°36.221 275.7 1.5 252 13.8
2004-04-20 08:04:22 51°9.155 2°36.218 275.4 1.5 251 13.9
2004-04-20 08:04:26 51°9.154 2°36.216 275.3 1.5 253 13.8
2004-04-20 08:04:32 51°9.153 2°36.212 275 1.5 252 13.8
2004-04-20 08:04:37 51°9.153 2°36.209 274.9 1.5 253 13.8
2004-04-20 08:04:42 51°9.152 2°36.206 274.8 1.5 252 13.9
2004-04-20 08:04:47 51°9.151 2°36.203 274.6 1.5 252 13.9
2004-04-20 08:04:52 51°9.151 2°36.2 274.3 1.5 251 13.9
2004-04-20 08:04:57 51°9.15 2°36.196 274.2 1.5 252 13.8
2004-04-20 08:05:02 51°9.149 2°36.193 274 1.6 242 13.8
2004-04-20 08:05:06 51°9.149 2°36.191 273.8 1.5 258 13.8
2004-04-20 08:05:12 51°9.148 2°36.187 273.6 1.5 249 13.9
2004-04-20 08:05:17 51°9.147 2°36.183 273.6 1.5 256 13.9
2004-04-20 08:05:22 51°9.147 2°36.18 273.4 1.6 248 13.9
2004-04-20 08:05:27 51°9.146 2°36.177 273.3 1.5 255 13.9
2004-04-20 08:05:31 51°9.145 2°36.174 273.1 1.6 248 13.9
2004-04-20 08:05:37 51°9.145 2°36.171 272.9 1.5 254 14
2004-04-20 08:05:42 51°9.144 2°36.167 272.7 1.6 249 13.9
2004-04-20 08:05:46 51°9.144 2°36.165 272.4 1.5 256 13.9
2004-04-20 08:05:52 51°9.143 2°36.161 272.1 1.6 249 14
2004-04-20 08:05:57 51°9.142 2°36.158 271.9 1.6 252 14
2004-04-20 08:06:02 51°9.141 2°36.154 271.5 1.6 250 13.9
2004-04-20 08:06:06 51°9.141 2°36.152 271.4 1.6 253 13.9
2004-04-20 08:06:12 51°9.14 2°36.148 271 1.6 251 13.9
2004-04-20 08:06:17 51°9.139 2°36.144 270.9 1.6 251 14
2004-04-20 08:06:22 51°9.138 2°36.141 270.7 1.6 251 14
2004-04-20 08:06:26 51°9.138 2°36.138 270.6 1.6 253 14
2004-04-20 08:06:32 51°9.137 2°36.134 270.5 1.9 255 14
2004-04-20 08:06:37 51°9.136 2°36.129 270.8 2.2 255 14.1
2004-04-20 08:06:42 51°9.136 2°36.123 273.3 2.5 259 13.9
2004-04-20 08:06:47 51°9.135 2°36.117 274.7 2.7 259 14
2004-04-20 08:06:52 51°9.134 2°36.111 275 3 261 14
2004-04-20 08:06:57 51°9.133 2°36.104 273.1 3.3 257 14
2004-04-20 08:07:01 51°9.132 2°36.098 269.2 3.5 257 14.1
2004-04-20 08:07:06 51°9.131 2°36.09 263.5 3.7 252 14.1
2004-04-20 08:07:12 51°9.129 2°36.08 259.2 3.7 251 14.1
2004-04-20 08:07:17 51°9.126 2°36.072 253.8 4 246 14.1
2004-04-20 08:07:21 51°9.124 2°36.066 248.2 4 244 14.1
2004-04-20 08:07:27 51°9.121 2°36.057 242.7 3.9 241 14.1
2004-04-20 08:07:32 51°9.118 2°36.05 238 3.8 239 14
2004-04-20 08:07:37 51°9.116 2°36.043 234.3 3.7 237 14
2004-04-20 08:07:42 51°9.113 2°36.037 232.8 3.6 237 14.1
2004-04-20 08:07:47 51°9.11 2°36.03 231.6 3.6 236 14.1
2004-04-20 08:07:52 51°9.108 2°36.024 230.9 3.5 236 14
2004-04-20 08:07:57 51°9.105 2°36.017 230.4 3.5 236 14.1
2004-04-20 08:08:01 51°9.103 2°36.012 230.3 3.4 236 14.1
2004-04-20 08:08:06 51°9.1 2°36.006 230.2 3.4 236 14
2004-04-20 08:08:12 51°9.097 2°35.998 230.1 3.4 235 14.1
2004-04-20 08:08:17 51°9.095 2°35.992 230.1 3.3 235 14
2004-04-20 08:08:22 51°9.092 2°35.986 230.2 3.3 236 14
2004-04-20 08:08:27 51°9.089 2°35.98 230.4 3.4 236 14
2004-04-20 08:08:32 51°9.087 2°35.973 230.8 3.4 235 14.1
2004-04-20 08:08:37 51°9.084 2°35.967 231.2 3.6 235 14
2004-04-20 08:08:41 51°9.081 2°35.961 231.9 3.7 236 14
2004-04-20 08:08:47 51°9.078 2°35.953 232.9 3.8 236 13.9
2004-04-20 08:08:52 51°9.075 2°35.946 233.9 3.9 237 14
2004-04-20 08:08:57 51°9.072 2°35.939 234.9 3.9 237 13.9
2004-04-20 08:09:02 51°9.069 2°35.931 235.8 4 237 14
2004-04-20 08:09:06 51°9.067 2°35.925 236.6 4.1 237 13.9
2004-04-20 08:09:12 51°9.063 2°35.916 237.3 4.1 238 13.9
2004-04-20 08:09:17 51°9.06 2°35.908 237.9 4.2 238 13.9
2004-04-20 08:09:21 51°9.057 2°35.902 238.6 4.2 238 13.9
2004-04-20 08:09:26 51°9.054 2°35.894 239.1 4.3 239 13.9
2004-04-20 08:09:32 51°9.051 2°35.884 239.5 4.3 239 13.9
2004-04-20 08:09:37 51°9.048 2°35.876 240 4.4 239 13.9
2004-04-20 08:09:42 51°9.045 2°35.867 240.6 4.4 239 13.9
2004-04-20 08:09:46 51°9.042 2°35.86 241 4.5 240 13.9
2004-04-20 08:09:52 51°9.038 2°35.85 241.6 4.5 240 14
2004-04-20 08:09:57 51°9.035 2°35.841 242.1 4.6 241 13.9
2004-04-20 08:10:02 51°9.032 2°35.832 242.7 4.6 241 13.9
2004-04-20 08:10:06 51°9.03 2°35.825 243.3 4.6 242 13.9
2004-04-20 08:10:12 51°9.026 2°35.814 243.8 4.6 241 14
2004-04-20 08:10:17 51°9.023 2°35.805 244.6 4.6 243 14
2004-04-20 08:10:22 51°9.02 2°35.796 245.2 4.6 243 14
2004-04-20 08:10:26 51°9.018 2°35.789 246.1 4.6 244 14
2004-04-20 08:10:32 51°9.015 2°35.778 246.8 4.7 244 14
2004-04-20 08:10:37 51°9.012 2°35.768 247.6 4.6 245 14
2004-04-20 08:10:42 51°9.009 2°35.759 248.4 4.7 245 14
2004-04-20 08:10:47 51°9.007 2°35.75 249.2 4.7 245 14
2004-04-20 08:10:52 51°9.004 2°35.74 249.7 4.7 245 14
2004-04-20 08:10:56 51°9.002 2°35.733 250 4.7 246 14.1
2004-04-20 08:11:01 51°8.999 2°35.724 250.4 4.7 246 14.1
2004-04-20 08:11:07 51°8.996 2°35.712 250.6 4.6 247 14.1
2004-04-20 08:11:12 51°8.994 2°35.703 251 4.6 246 14.1
2004-04-20 08:11:17 51°8.991 2°35.694 251.2 4.5 247 14.1
2004-04-20 08:11:21 51°8.99 2°35.687 251.6 4.4 247 14.1
2004-04-20 08:11:26 51°8.987 2°35.678 251.9 4.4 247 14.1
2004-04-20 08:11:32 51°8.985 2°35.668 252.3 4.3 247 14.1
2004-04-20 08:11:36 51°8.983 2°35.661 252.6 4.3 248 14.2
2004-04-20 08:11:42 51°8.98 2°35.651 253.1 4.2 248 14.2
2004-04-20 08:11:46 51°8.978 2°35.644 253.5 4.1 249 14.2
2004-04-20 08:11:52 51°8.976 2°35.634 254 4.1 248 14.2
2004-04-20 08:11:57 51°8.974 2°35.625 254.4 4.1 249 14.2
2004-04-20 08:12:01 51°8.972 2°35.619 254.8 4 250 14.3
2004-04-20 08:12:06 51°8.97 2°35.61 255.2 4 249 14.3
2004-04-20 08:12:12 51°8.968 2°35.601 255.4 4 249 14.3
2004-04-20 08:12:17 51°8.966 2°35.593 256 3.9 250 14.3
2004-04-20 08:12:22 51°8.964 2°35.585 256.4 3.9 250 14.3
2004-04-20 08:12:27 51°8.962 2°35.577 256.8 3.8 250 14.3
2004-04-20 08:12:32 51°8.961 2°35.569 257.1 3.8 251 14.4
2004-04-20 08:12:37 51°8.959 2°35.561 257.6 3.8 251 14.4
2004-04-20 08:12:41 51°8.958 2°35.555 257.9 3.7 251 14.4
2004-04-20 08:12:46 51°8.956 2°35.547 258.3 3.7 251 14.4
2004-04-20 08:12:52 51°8.954 2°35.538 258.4 3.7 251 14.4
2004-04-20 08:12:57 51°8.952 2°35.53 258.7 3.6 252 14.4
2004-04-20 08:13:02 51°8.951 2°35.523 258.8 3.6 251 14.4
2004-04-20 08:13:06 51°8.949 2°35.517 258.8 3.6 252 14.5
2004-04-20 08:13:12 51°8.947 2°35.508 258.9 3.6 251 14.5
2004-04-20 08:13:17 51°8.946 2°35.5 258.9 3.6 252 14.5
2004-04-20 08:13:21 51°8.945 2°35.494 258.9 3.5 251 14.5
2004-04-20 08:13:26 51°8.943 2°35.487 258.8 3.5 252 14.6
2004-04-20 08:13:32 51°8.941 2°35.478 258.7 3.5 252 14.5
2004-04-20 08:13:37 51°8.94 2°35.471 258.4 3.5 251 14.6
2004-04-20 08:13:42 51°8.938 2°35.464 258.3 3.5 251 14.6
2004-04-20 08:13:47 51°8.937 2°35.457 258.1 3.4 251 14.6
2004-04-20 08:13:52 51°8.935 2°35.449 257.9 3.4 251 14.6
2004-04-20 08:13:57 51°8.933 2°35.442 257.7 3.4 251 14.6
2004-04-20 08:14:01 51°8.932 2°35.437 257.5 3.4 250 14.7
2004-04-20 08:14:07 51°8.93 2°35.428 257.4 3.4 250 14.6
2004-04-20 08:14:12 51°8.929 2°35.421 257.3 3.3 250 14.7
2004-04-20 08:14:17 51°8.927 2°35.414 257.1 3.3 250 14.6
2004-04-20 08:14:22 51°8.925 2°35.407 256.9 3.3 250 14.6
2004-04-20 08:14:26 51°8.924 2°35.402 256.8 3.3 249 14.6
2004-04-20 08:14:31 51°8.923 2°35.395 256.5 3.3 249 14.6
2004-04-20 08:14:37 51°8.921 2°35.387 256.2 3.3 249 14.6
2004-04-20 08:14:42 51°8.919 2°35.38 255.8 3.3 249 14.7
2004-04-20 08:14:46 51°8.918 2°35.375 255.5 3.3 249 14.7
2004-04-20 08:14:51 51°8.916 2°35.368 255.2 3.3 249 14.7
2004-04-20 08:14:57 51°8.914 2°35.36 254.8 3.3 249 14.7
2004-04-20 08:15:02 51°8.912 2°35.353 254.5 3.3 249 14.7
2004-04-20 08:15:07 51°8.91 2°35.346 254.1 3.3 248 14.6
2004-04-20 08:15:12 51°8.909 2°35.34 253.7 3.3 248 14.7
2004-04-20 08:15:17 51°8.907 2°35.333 253.3 3.3 247 14.7
2004-04-20 08:15:21 51°8.906 2°35.328 253 3.3 247 14.7
2004-04-20 08:15:26 51°8.904 2°35.321 252.5 3.3 247 14.7
2004-04-20 08:15:32 51°8.901 2°35.313 252.1 3.3 247 14.8
2004-04-20 08:15:37 51°8.9 2°35.307 251.6 3.3 246 14.8
2004-04-20 08:15:41 51°8.898 2°35.301 251.1 3.3 246 14.8
2004-04-20 08:15:47 51°8.896 2°35.293 250.6 3.3 246 14.8
2004-04-20 08:15:52 51°8.894 2°35.287 250.3 3.3 246 14.8
2004-04-20 08:15:56 51°8.893 2°35.282 249.9 3.3 246 14.8
2004-04-20 08:16:02 51°8.891 2°35.274 249.5 3.3 245 14.8
2004-04-20 08:16:06 51°8.889 2°35.269 249 3.3 245 14.8
2004-04-20 08:16:12 51°8.887 2°35.261 248.6 3.3 245 14.8
2004-04-20 08:16:17 51°8.885 2°35.254 248.3 3.3 245 14.8
2004-04-20 08:16:22 51°8.883 2°35.248 248 3.3 245 14.8
2004-04-20 08:16:26 51°8.881 2°35.243 247.8 3.3 244 14.8
2004-04-20 08:16:32 51°8.879 2°35.235 247.5 3.3 245 14.8
2004-04-20 08:16:37 51°8.877 2°35.228 247.2 3.3 244 14.8
2004-04-20 08:16:42 51°8.875 2°35.222 247 3.3 244 14.8
2004-04-20 08:16:47 51°8.873 2°35.215 246.8 3.3 244 14.8
2004-04-20 08:16:51 51°8.871 2°35.21 246.6 3.3 244 14.9
2004-04-20 08:16:57 51°8.869 2°35.202 246.4 3.3 244 14.9
2004-04-20 08:17:01 51°8.867 2°35.197 246.3 3.3 244 14.9
2004-04-20 08:17:06 51°8.865 2°35.191 246.1 3.3 244 14.9
2004-04-20 08:17:12 51°8.863 2°35.183 246 3.3 244 14.9
2004-04-20 08:17:17 51°8.861 2°35.177 245.7 3.3 243 14.9
2004-04-20 08:17:22 51°8.859 2°35.17 245.5 3.3 244 14.9
2004-04-20 08:17:26 51°8.857 2°35.165 245.3 3.3 244 14.9
2004-04-20 08:17:32 51°8.855 2°35.157 245.1 3.3 242 14.9
2004-04-20 08:17:37 51°8.853 2°35.151 244.8 3.3 243 14.9
2004-04-20 08:17:41 51°8.851 2°35.146 244.6 3.3 242 14.9
2004-04-20 08:17:46 51°8.849 2°35.139 244.4 3.3 242 15
2004-04-20 08:17:52 51°8.847 2°35.132 244.2 3.3 242 15
2004-04-20 08:17:57 51°8.844 2°35.125 244 3.3 242 15
2004-04-20 08:18:01 51°8.842 2°35.12 243.8 3.3 242 15
2004-04-20 08:18:07 51°8.84 2°35.112 243.8 3.3 242 15
2004-04-20 08:18:12 51°8.838 2°35.106 243.7 3.3 242 15
2004-04-20 08:18:17 51°8.835 2°35.099 243.6 3.3 242 15
2004-04-20 08:18:21 51°8.833 2°35.094 243.6 3.3 242 15
2004-04-20 08:18:26 51°8.831 2°35.088 243.6 3.3 242 15
2004-04-20 08:18:32 51°8.828 2°35.08 243.5 3.3 242 15
2004-04-20 08:18:37 51°8.826 2°35.073 243.4 3.3 242 15
2004-04-20 08:18:42 51°8.824 2°35.067 243.3 3.3 242 15
2004-04-20 08:18:47 51°8.822 2°35.06 243.2 3.3 241 15
2004-04-20 08:18:52 51°8.819 2°35.054 243.1 3.3 242 15.1
2004-04-20 08:18:57 51°8.817 2°35.047 243.1 3.3 241 15.1
2004-04-20 08:19:01 51°8.815 2°35.042 243.1 3.3 241 15.1
2004-04-20 08:19:07 51°8.812 2°35.034 243 3.4 241 15.1
2004-04-20 08:19:12 51°8.81 2°35.028 242.9 3.4 241 15.1
2004-04-20 08:19:17 51°8.808 2°35.021 242.9 3.4 241 15.1
2004-04-20 08:19:21 51°8.806 2°35.016 242.8 3.4 241 15.1
2004-04-20 08:19:27 51°8.804 2°35.008 242.8 3.4 241 15.1
2004-04-20 08:19:31 51°8.802 2°35.003 242.8 3.4 241 15
2004-04-20 08:19:37 51°8.799 2°34.995 242.8 3.4 241 15.1
2004-04-20 08:19:42 51°8.797 2°34.989 242.8 3.4 241 15.1
2004-04-20 08:19:47 51°8.795 2°34.982 242.9 3.4 241 15.1
2004-04-20 08:19:52 51°8.792 2°34.976 242.9 3.4 241 15.1
2004-04-20 08:19:57 51°8.79 2°34.969 243 3.4 241 15
2004-04-20 08:20:01 51°8.788 2°34.964 243.1 3.4 240 15.1
2004-04-20 08:20:07 51°8.785 2°34.956 243.1 3.4 240 15.1
2004-04-20 08:20:12 51°8.783 2°34.95 243.1 3.4 241 15